Time;durP1;ratioP1;P1;durP2;ratioP2;P2;SDS_P1;SDS_P2;PMS_P1;PMS_P2;Temp;Humidity;BMP_temperature;BMP_pressure;BME280_temperature;BME280_humidity;BME280_pressure;Samples;Min_cycle;Max_cycle;Signal;HPM_P1;HPM_P2
2022/11/22 00:01:13;;;;;;;1.03;0.80;;;;;;;;;;5086305;28;20040;-63
2022/11/22 00:03:39;;;;;;;4.40;1.60;;;;;;;;;;5087458;28;20458;-63
2022/11/22 00:06:06;;;;;;;1.40;0.97;;;;;;;;;;5086708;28;20130;-63
2022/11/22 00:08:33;;;;;;;2.57;1.00;;;;;;;;;;5092573;28;20374;-62
2022/11/22 00:11:00;;;;;;;1.37;0.87;;;;;;;;;;5092750;28;20032;-63
2022/11/22 00:13:26;;;;;;;1.23;0.70;;;;;;;;;;5092413;28;20032;-63
2022/11/22 00:16:00;;;;;;;1.33;0.77;;;;;;;;;;5092083;28;20028;-64
2022/11/22 00:18:28;;;;;;;2.50;1.00;;;;;;;;;;5086870;28;20032;-64
2022/11/22 00:20:55;;;;;;;1.97;0.57;;;;;;;;;;5085770;28;20023;-65
2022/11/22 00:23:22;;;;;;;1.27;0.67;;;;;;;;;;5086789;28;20486;-63
2022/11/22 00:25:49;;;;;;;5.10;1.00;;;;;;;;;;5085162;28;20024;-64
2022/11/22 00:28:15;;;;;;;1.33;0.83;;;;;;;;;;5085991;28;20046;-63
2022/11/22 00:30:42;;;;;;;1.23;0.93;;;;;;;;;;5091129;28;20020;-63
2022/11/22 00:33:11;;;;;;;2.13;1.13;;;;;;;;;;5091503;28;20184;-63
2022/11/22 00:35:38;;;;;;;2.97;1.43;;;;;;;;;;5092551;28;20114;-63
2022/11/22 00:38:04;;;;;;;4.43;1.33;;;;;;;;;;5092414;28;20378;-63
2022/11/22 00:40:33;;;;;;;1.77;1.10;;;;;;;;;;5094984;28;20103;-64
2022/11/22 00:43:00;;;;;;;2.17;1.27;;;;;;;;;;5088896;28;20024;-64
2022/11/22 00:45:26;;;;;;;1.57;1.00;;;;;;;;;;5088663;28;20450;-63
2022/11/22 00:47:53;;;;;;;2.10;1.30;;;;;;;;;;5090234;28;20028;-63
2022/11/22 00:50:20;;;;;;;1.67;1.10;;;;;;;;;;5090179;28;20074;-63
2022/11/22 00:52:47;;;;;;;5.17;1.10;;;;;;;;;;5095626;28;20111;-64
2022/11/22 00:55:13;;;;;;;2.10;0.93;;;;;;;;;;5095638;28;20028;-64
2022/11/22 00:57:40;;;;;;;4.27;1.43;;;;;;;;;;5075560;28;20058;-63
2022/11/22 01:00:07;;;;;;;8.27;1.03;;;;;;;;;;5094693;28;20028;-63
2022/11/22 01:02:34;;;;;;;3.13;1.57;;;;;;;;;;5093783;28;20078;-65
2022/11/22 01:05:01;;;;;;;2.17;1.40;;;;;;;;;;5088613;28;20107;-64
2022/11/22 01:07:27;;;;;;;2.50;1.30;;;;;;;;;;5089426;28;20047;-64
2022/11/22 01:09:54;;;;;;;1.63;1.00;;;;;;;;;;5088339;28;20398;-63
2022/11/22 01:12:21;;;;;;;1.90;1.07;;;;;;;;;;5089800;28;21321;-63
2022/11/22 01:14:47;;;;;;;1.70;0.83;;;;;;;;;;5092847;28;20048;-63
2022/11/22 01:17:14;;;;;;;2.43;1.23;;;;;;;;;;5094339;28;20039;-62
2022/11/22 01:19:41;;;;;;;2.40;1.27;;;;;;;;;;5090274;28;20490;-64
2022/11/22 01:22:07;;;;;;;3.60;1.07;;;;;;;;;;5074708;28;20024;-64
2022/11/22 01:24:34;;;;;;;1.33;0.80;;;;;;;;;;5054487;28;20033;-64
2022/11/22 01:27:01;;;;;;;1.03;0.70;;;;;;;;;;5049429;28;20384;-63
2022/11/22 01:29:28;;;;;;;1.50;0.83;;;;;;;;;;5061572;28;20031;-64
2022/11/22 01:31:54;;;;;;;1.00;0.77;;;;;;;;;;5067627;28;20013;-63
2022/11/22 01:34:21;;;;;;;0.43;0.40;;;;;;;;;;5067725;28;20459;-64
2022/11/22 01:36:48;;;;;;;0.70;0.50;;;;;;;;;;5052295;28;20474;-64
2022/11/22 01:39:14;;;;;;;0.43;0.43;;;;;;;;;;5057758;28;20025;-64
2022/11/22 01:41:41;;;;;;;1.10;0.87;;;;;;;;;;5054009;28;20521;-63
2022/11/22 01:44:20;;;;;;;2.30;1.47;;;;;;;;;;5054015;28;20375;-63
2022/11/22 01:46:49;;;;;;;1.43;0.87;;;;;;;;;;5053967;28;20027;-63
2022/11/22 01:49:25;;;;;;;2.23;1.10;;;;;;;;;;5052290;28;20036;-63
2022/11/22 01:51:53;;;;;;;1.33;0.83;;;;;;;;;;5048746;28;20063;-62
2022/11/22 01:54:22;;;;;;;2.77;1.07;;;;;;;;;;5048536;28;20024;-64
2022/11/22 01:56:51;;;;;;;0.50;0.47;;;;;;;;;;5048353;28;20039;-63
2022/11/22 01:59:20;;;;;;;1.70;1.10;;;;;;;;;;5064162;28;20035;-62
2022/11/22 02:01:47;;;;;;;2.57;1.30;;;;;;;;;;5072189;28;20482;-63
2022/11/22 02:04:15;;;;;;;1.07;0.90;;;;;;;;;;5070428;28;20605;-62
2022/11/22 02:06:48;;;;;;;2.00;0.90;;;;;;;;;;5072156;28;20020;-62
2022/11/22 02:09:16;;;;;;;1.67;1.00;;;;;;;;;;5072937;28;20028;-63
2022/11/22 02:11:48;;;;;;;1.00;0.73;;;;;;;;;;5064199;28;20024;-63
2022/11/22 02:14:15;;;;;;;0.97;0.60;;;;;;;;;;5068244;28;20086;-63
2022/11/22 02:16:42;;;;;;;1.80;0.77;;;;;;;;;;5067671;28;20063;-64
2022/11/22 02:19:20;;;;;;;0.67;0.47;;;;;;;;;;5067822;28;20447;-63
2022/11/22 02:21:49;;;;;;;1.23;0.60;;;;;;;;;;5072846;28;20547;-63
2022/11/22 02:24:39;;;;;;;1.03;0.53;;;;;;;;;;5073188;28;20416;-62
2022/11/22 02:27:06;;;;;;;0.70;0.63;;;;;;;;;;5060010;28;20021;-62
2022/11/22 02:29:33;;;;;;;2.90;0.73;;;;;;;;;;5072486;28;20043;-63
2022/11/22 02:31:59;;;;;;;1.80;0.80;;;;;;;;;;5063478;28;20376;-63
2022/11/22 02:34:26;;;;;;;4.13;1.23;;;;;;;;;;5047927;28;20428;-63
2022/11/22 02:36:54;;;;;;;0.70;0.40;;;;;;;;;;5061629;28;20032;-63
2022/11/22 02:39:24;;;;;;;0.87;0.53;;;;;;;;;;5048002;28;20025;-63
2022/11/22 02:41:51;;;;;;;0.70;0.60;;;;;;;;;;5047236;28;20029;-62
2022/11/22 02:44:19;;;;;;;0.70;0.57;;;;;;;;;;5053481;28;20376;-62
2022/11/22 02:46:50;;;;;;;0.77;0.50;;;;;;;;;;5063581;28;20028;-63
2022/11/22 02:49:17;;;;;;;1.07;0.53;;;;;;;;;;5059605;28;20361;-63
2022/11/22 02:51:44;;;;;;;1.17;0.83;;;;;;;;;;5061728;28;20025;-63
2022/11/22 02:54:11;;;;;;;0.50;0.50;;;;;;;;;;5052293;28;20028;-63
2022/11/22 02:56:37;;;;;;;0.90;0.67;;;;;;;;;;5047241;28;20221;-63
2022/11/22 02:59:04;;;;;;;2.50;0.97;;;;;;;;;;5056780;28;20143;-63
2022/11/22 03:01:31;;;;;;;0.80;0.50;;;;;;;;;;5065751;28;20522;-63
2022/11/22 03:03:57;;;;;;;0.30;0.30;;;;;;;;;;5065997;28;20495;-62
2022/11/22 03:06:24;;;;;;;0.83;0.50;;;;;;;;;;5054363;28;20107;-63
2022/11/22 03:08:51;;;;;;;0.63;0.47;;;;;;;;;;5052541;28;20036;-63
2022/11/22 03:11:17;;;;;;;0.73;0.63;;;;;;;;;;5052399;28;20474;-63
2022/11/22 03:13:44;;;;;;;1.67;0.60;;;;;;;;;;5052304;28;20029;-61
2022/11/22 03:16:11;;;;;;;2.03;0.70;;;;;;;;;;5051951;28;20037;-62
2022/11/22 03:18:37;;;;;;;0.97;0.80;;;;;;;;;;5047524;28;20092;-62
2022/11/22 03:21:05;;;;;;;0.67;0.60;;;;;;;;;;5047302;28;20491;-63
2022/11/22 03:23:32;;;;;;;0.90;0.77;;;;;;;;;;5047095;28;20029;-62
2022/11/22 03:25:59;;;;;;;2.83;0.90;;;;;;;;;;5064075;28;20020;-63
2022/11/22 03:28:26;;;;;;;0.43;0.30;;;;;;;;;;5069915;28;20021;-64
2022/11/22 03:30:55;;;;;;;6.43;1.13;;;;;;;;;;5051485;28;20100;-62
2022/11/22 03:33:22;;;;;;;4.80;1.07;;;;;;;;;;5052047;28;20154;-62
2022/11/22 03:35:48;;;;;;;1.60;0.67;;;;;;;;;;5051890;28;20033;-63
2022/11/22 03:38:15;;;;;;;0.60;0.43;;;;;;;;;;5052084;28;20029;-64
2022/11/22 03:40:45;;;;;;;0.90;0.70;;;;;;;;;;5059782;28;20029;-63
2022/11/22 03:43:12;;;;;;;0.50;0.43;;;;;;;;;;5067113;28;20104;-63
2022/11/22 03:45:44;;;;;;;1.00;0.70;;;;;;;;;;5064999;28;20027;-63
2022/11/22 03:48:10;;;;;;;0.83;0.50;;;;;;;;;;5066526;28;20419;-64
2022/11/22 03:50:37;;;;;;;1.10;0.60;;;;;;;;;;5070575;28;20517;-62
2022/11/22 03:53:04;;;;;;;2.03;1.10;;;;;;;;;;5069905;28;20017;-62
2022/11/22 03:55:31;;;;;;;2.03;1.10;;;;;;;;;;5065558;28;20060;-64
2022/11/22 03:57:57;;;;;;;0.70;0.60;;;;;;;;;;5059620;28;20379;-64
2022/11/22 04:00:24;;;;;;;1.57;0.87;;;;;;;;;;5052002;28;20098;-63
2022/11/22 04:02:51;;;;;;;1.40;0.83;;;;;;;;;;5053461;28;20021;-64
2022/11/22 04:05:18;;;;;;;1.10;0.63;;;;;;;;;;5065420;28;20027;-62
2022/11/22 04:07:44;;;;;;;0.37;0.37;;;;;;;;;;5065219;28;20031;-63
2022/11/22 04:10:11;;;;;;;0.40;0.37;;;;;;;;;;5059189;28;20064;-63
2022/11/22 04:12:38;;;;;;;3.10;1.10;;;;;;;;;;5062343;28;20028;-64
2022/11/22 04:15:07;;;;;;;1.63;0.40;;;;;;;;;;5074351;28;20482;-63
2022/11/22 04:17:40;;;;;;;1.10;0.50;;;;;;;;;;5074193;28;20471;-62
2022/11/22 04:23:13;;;;;;;0.37;0.37;;;;;;;;;;5059609;28;20506;-62
2022/11/22 04:25:40;;;;;;;2.33;0.63;;;;;;;;;;5050210;28;20048;-62
2022/11/22 04:28:08;;;;;;;1.30;0.77;;;;;;;;;;5068932;28;20060;-62
2022/11/22 04:33:20;;;;;;;;;;;;;;;;;;5069911;28;20039;-62
2022/11/22 04:35:47;;;;;;;3.17;0.80;;;;;;;;;;5058968;28;19917;-62
2022/11/22 04:38:14;;;;;;;0.50;0.47;;;;;;;;;;5054933;28;20025;-62
2022/11/22 04:40:41;;;;;;;1.60;0.20;;;;;;;;;;5064118;28;20482;-62
2022/11/22 04:45:54;;;;;;;0.77;0.40;;;;;;;;;;5060560;28;20055;-62
2022/11/22 04:48:21;;;;;;;0.87;0.60;;;;;;;;;;5068756;28;20047;-63
2022/11/22 04:53:33;;;;;;;0.52;0.50;;;;;;;;;;5065192;28;20411;-62
2022/11/22 04:55:59;;;;;;;0.47;0.43;;;;;;;;;;5065010;28;20471;-62
2022/11/22 04:58:26;;;;;;;5.57;0.90;;;;;;;;;;5072591;28;20032;-62
2022/11/22 05:00:53;;;;;;;0.83;0.50;;;;;;;;;;5070109;28;20027;-62
2022/11/22 05:03:19;;;;;;;0.73;0.70;;;;;;;;;;5056721;28;20039;-62
2022/11/22 05:05:46;;;;;;;1.23;0.70;;;;;;;;;;5069531;28;20021;-62
2022/11/22 05:08:13;;;;;;;0.93;0.63;;;;;;;;;;5068417;28;20024;-62
2022/11/22 05:10:58;;;;;;;1.60;0.77;;;;;;;;;;5066090;28;20032;-62
2022/11/22 05:13:32;;;;;;;0.30;0.30;;;;;;;;;;5049678;28;20021;-62
2022/11/22 05:15:59;;;;;;;0.80;0.50;;;;;;;;;;5049071;28;20082;-62
2022/11/22 05:18:26;;;;;;;2.03;0.77;;;;;;;;;;5057140;28;20375;-62
2022/11/22 05:20:53;;;;;;;1.57;0.57;;;;;;;;;;5057320;28;20029;-62
2022/11/22 05:26:06;;;;;;;1.10;0.95;;;;;;;;;;5073227;28;20379;-61
2022/11/22 05:28:33;;;;;;;0.50;0.47;;;;;;;;;;5072981;28;20107;-62
2022/11/22 05:31:05;;;;;;;10.70;1.00;;;;;;;;;;5071082;28;20476;-62
2022/11/22 05:33:32;;;;;;;2.17;1.57;;;;;;;;;;5067645;28;20024;-62
2022/11/22 05:35:59;;;;;;;1.23;0.97;;;;;;;;;;5067902;28;20032;-62
2022/11/22 05:38:25;;;;;;;1.83;1.17;;;;;;;;;;5066418;28;20054;-62
2022/11/22 05:40:52;;;;;;;6.03;1.60;;;;;;;;;;5064154;28;20033;-62
2022/11/22 05:43:19;;;;;;;0.50;0.43;;;;;;;;;;5073227;28;20482;-62
2022/11/22 05:45:45;;;;;;;1.43;1.00;;;;;;;;;;5073735;28;20134;-61
2022/11/22 05:48:12;;;;;;;1.50;1.00;;;;;;;;;;5073041;28;20493;-62
2022/11/22 05:50:39;;;;;;;1.70;1.03;;;;;;;;;;5073379;28;20494;-62
2022/11/22 05:53:05;;;;;;;2.10;1.50;;;;;;;;;;5072539;28;20535;-61
2022/11/22 05:55:32;;;;;;;3.43;1.93;;;;;;;;;;5067805;28;20115;-62
2022/11/22 05:58:02;;;;;;;2.03;1.40;;;;;;;;;;5068529;28;20012;-62
2022/11/22 06:00:29;;;;;;;1.90;1.20;;;;;;;;;;5068017;28;20029;-62
2022/11/22 06:03:02;;;;;;;1.57;1.27;;;;;;;;;;5059252;28;20840;-61
2022/11/22 06:05:29;;;;;;;4.57;1.43;;;;;;;;;;5073383;28;20475;-61
2022/11/22 06:08:01;;;;;;;3.17;1.73;;;;;;;;;;5073567;28;20107;-61
2022/11/22 06:10:28;;;;;;;2.13;1.47;;;;;;;;;;5073267;28;20090;-61
2022/11/22 06:12:55;;;;;;;6.13;1.03;;;;;;;;;;5073284;28;20028;-61
2022/11/22 06:15:21;;;;;;;2.63;1.87;;;;;;;;;;5071831;28;20124;-62
2022/11/22 06:17:48;;;;;;;7.37;2.63;;;;;;;;;;5068312;28;20553;-62
2022/11/22 06:20:15;;;;;;;4.23;1.43;;;;;;;;;;5067778;28;21331;-61
2022/11/22 06:22:41;;;;;;;1.73;1.17;;;;;;;;;;5066768;28;20498;-62
2022/11/22 06:25:08;;;;;;;0.87;0.57;;;;;;;;;;5048225;28;20020;-62
2022/11/22 06:27:35;;;;;;;8.17;2.13;;;;;;;;;;5053304;28;20128;-62
2022/11/22 06:30:02;;;;;;;3.73;1.47;;;;;;;;;;5066990;28;20024;-62
2022/11/22 06:32:31;;;;;;;2.50;1.70;;;;;;;;;;5072642;28;20536;-63
2022/11/22 06:34:58;;;;;;;3.77;1.83;;;;;;;;;;5061371;28;20490;-62
2022/11/22 06:37:25;;;;;;;1.60;1.10;;;;;;;;;;5053739;28;20487;-62
2022/11/22 06:39:51;;;;;;;1.20;0.83;;;;;;;;;;5051891;28;20017;-61
2022/11/22 06:42:18;;;;;;;1.93;0.90;;;;;;;;;;5060769;28;20109;-61
2022/11/22 06:44:45;;;;;;;1.93;1.10;;;;;;;;;;5065954;28;20020;-63
2022/11/22 06:47:11;;;;;;;1.43;0.90;;;;;;;;;;5066303;28;20051;-63
2022/11/22 06:49:38;;;;;;;1.53;1.20;;;;;;;;;;5072026;28;20491;-63
2022/11/22 06:52:05;;;;;;;1.33;1.00;;;;;;;;;;5072813;28;20062;-62
2022/11/22 06:54:31;;;;;;;1.97;1.37;;;;;;;;;;5072715;28;20048;-63
2022/11/22 06:56:58;;;;;;;1.47;1.10;;;;;;;;;;5072705;28;20040;-62
2022/11/22 06:59:25;;;;;;;1.23;1.07;;;;;;;;;;5072469;28;20021;-62
2022/11/22 07:01:51;;;;;;;2.87;1.40;;;;;;;;;;5067151;28;20032;-63
2022/11/22 07:04:18;;;;;;;1.53;1.13;;;;;;;;;;5066954;28;20037;-63
2022/11/22 07:06:45;;;;;;;4.23;2.00;;;;;;;;;;5067261;28;20048;-63
2022/11/22 07:09:11;;;;;;;0.77;0.73;;;;;;;;;;5066748;28;20518;-63
2022/11/22 07:11:40;;;;;;;0.87;0.73;;;;;;;;;;5071451;28;20437;-63
2022/11/22 07:14:07;;;;;;;1.00;0.90;;;;;;;;;;5072522;28;20479;-63
2022/11/22 07:16:34;;;;;;;1.30;0.90;;;;;;;;;;5072528;28;20028;-62
2022/11/22 07:19:00;;;;;;;1.00;0.83;;;;;;;;;;5072442;28;20048;-62
2022/11/22 07:21:27;;;;;;;0.80;0.70;;;;;;;;;;5072036;28;20024;-63
2022/11/22 07:23:54;;;;;;;1.57;0.90;;;;;;;;;;5067358;28;20024;-63
2022/11/22 07:26:22;;;;;;;2.30;1.23;;;;;;;;;;5067028;28;20021;-63
2022/11/22 07:28:49;;;;;;;0.73;0.67;;;;;;;;;;5066888;28;20020;-63
2022/11/22 07:31:16;;;;;;;0.40;0.33;;;;;;;;;;5066092;28;20132;-63
2022/11/22 07:33:43;;;;;;;1.17;0.80;;;;;;;;;;5070906;28;20375;-62
2022/11/22 07:36:12;;;;;;;3.27;1.00;;;;;;;;;;5071834;28;20040;-63
2022/11/22 07:38:39;;;;;;;0.70;0.50;;;;;;;;;;5072267;28;20024;-63
2022/11/22 07:41:07;;;;;;;1.60;1.13;;;;;;;;;;5071980;28;20028;-62
2022/11/22 07:43:33;;;;;;;1.20;0.83;;;;;;;;;;5072210;28;20487;-63
2022/11/22 07:46:00;;;;;;;1.23;0.90;;;;;;;;;;5067725;28;20031;-62
2022/11/22 07:48:27;;;;;;;0.50;0.43;;;;;;;;;;5066503;28;20021;-63
2022/11/22 07:50:54;;;;;;;1.27;1.13;;;;;;;;;;5066584;28;20024;-62
2022/11/22 07:53:20;;;;;;;1.87;0.87;;;;;;;;;;5066214;28;20025;-62
2022/11/22 07:55:47;;;;;;;0.70;0.67;;;;;;;;;;5069806;28;20036;-62
2022/11/22 07:58:14;;;;;;;0.47;0.47;;;;;;;;;;5071904;28;20032;-63
2022/11/22 08:00:40;;;;;;;1.43;0.80;;;;;;;;;;5071813;28;20037;-62
2022/11/22 08:03:07;;;;;;;2.07;0.93;;;;;;;;;;5071674;28;20107;-62
2022/11/22 08:05:34;;;;;;;0.70;0.50;;;;;;;;;;5071931;28;20033;-62
2022/11/22 08:08:01;;;;;;;1.03;0.90;;;;;;;;;;5067698;28;20020;-63
2022/11/22 08:10:28;;;;;;;0.70;0.60;;;;;;;;;;5066540;28;20029;-63
2022/11/22 08:12:57;;;;;;;0.50;0.47;;;;;;;;;;5066175;28;20750;-63
2022/11/22 08:15:24;;;;;;;0.50;0.50;;;;;;;;;;5066448;28;20059;-62
2022/11/22 08:17:51;;;;;;;0.30;0.30;;;;;;;;;;5069506;28;20029;-62
2022/11/22 08:20:17;;;;;;;1.50;0.97;;;;;;;;;;5071445;28;20020;-63
2022/11/22 08:22:44;;;;;;;0.30;0.30;;;;;;;;;;5071814;28;20035;-62
2022/11/22 08:25:14;;;;;;;0.47;0.40;;;;;;;;;;5071208;28;20074;-63
2022/11/22 08:27:41;;;;;;;0.77;0.50;;;;;;;;;;5071994;28;20039;-62
2022/11/22 08:30:08;;;;;;;1.83;1.00;;;;;;;;;;5068176;28;20061;-62
2022/11/22 08:32:35;;;;;;;0.63;0.53;;;;;;;;;;5066276;28;20036;-62
2022/11/22 08:35:01;;;;;;;0.63;0.60;;;;;;;;;;5066299;28;20071;-62
2022/11/22 08:37:28;;;;;;;0.20;0.13;;;;;;;;;;5066236;28;20032;-62
2022/11/22 08:39:55;;;;;;;0.50;0.50;;;;;;;;;;5068393;28;20103;-63
2022/11/22 08:42:22;;;;;;;0.80;0.70;;;;;;;;;;5071845;28;20016;-62
2022/11/22 08:44:49;;;;;;;1.67;0.90;;;;;;;;;;5071483;28;20029;-63
2022/11/22 08:47:16;;;;;;;0.77;0.57;;;;;;;;;;5071615;28;20020;-63
2022/11/22 08:49:42;;;;;;;0.20;0.20;;;;;;;;;;5071823;28;20375;-62
2022/11/22 08:52:09;;;;;;;0.63;0.53;;;;;;;;;;5068488;28;20029;-63
2022/11/22 08:54:36;;;;;;;1.07;0.70;;;;;;;;;;5066022;28;20024;-62
2022/11/22 08:57:02;;;;;;;0.97;0.70;;;;;;;;;;5065683;28;20040;-63
2022/11/22 08:59:29;;;;;;;0.47;0.37;;;;;;;;;;5066528;28;20032;-63
2022/11/22 09:01:56;;;;;;;0.67;0.57;;;;;;;;;;5071767;28;20052;-62
2022/11/22 09:04:22;;;;;;;0.90;0.63;;;;;;;;;;5074913;28;20452;-62
2022/11/22 09:06:49;;;;;;;0.80;0.53;;;;;;;;;;5074720;28;20021;-62
2022/11/22 09:09:16;;;;;;;0.03;0.03;;;;;;;;;;5075028;28;20153;-62
2022/11/22 09:11:42;;;;;;;0.30;0.30;;;;;;;;;;5074867;28;20396;-62
2022/11/22 09:14:09;;;;;;;0.90;0.67;;;;;;;;;;5071724;28;20048;-62
2022/11/22 09:16:36;;;;;;;0.87;0.67;;;;;;;;;;5069367;28;20032;-62
2022/11/22 09:19:02;;;;;;;0.77;0.53;;;;;;;;;;5069278;28;20032;-63
2022/11/22 09:21:29;;;;;;;0.73;0.60;;;;;;;;;;5069065;28;20032;-62
2022/11/22 09:23:56;;;;;;;0.50;0.43;;;;;;;;;;5070878;28;20059;-62
2022/11/22 09:26:24;;;;;;;0.47;0.47;;;;;;;;;;5074546;28;20055;-62
2022/11/22 09:28:52;;;;;;;1.40;0.73;;;;;;;;;;5074380;28;20061;-62
2022/11/22 09:31:20;;;;;;;1.73;0.60;;;;;;;;;;5073801;28;20062;-62
2022/11/22 09:33:48;;;;;;;0.20;0.20;;;;;;;;;;5074465;28;20021;-62
2022/11/22 09:36:19;;;;;;;0.17;0.13;;;;;;;;;;5072160;28;20483;-62
2022/11/22 09:38:46;;;;;;;0.77;0.33;;;;;;;;;;5068987;28;20086;-62
2022/11/22 09:41:15;;;;;;;0.40;0.40;;;;;;;;;;5068850;28;20025;-62
2022/11/22 09:43:45;;;;;;;0.83;0.70;;;;;;;;;;5068705;28;20068;-62
2022/11/22 09:46:12;;;;;;;0.90;0.40;;;;;;;;;;5070222;28;20074;-62
2022/11/22 09:48:53;;;;;;;0.30;0.30;;;;;;;;;;5074003;28;20512;-62
2022/11/22 09:51:23;;;;;;;0.50;0.40;;;;;;;;;;5074166;28;20020;-60
2022/11/22 09:54:04;;;;;;;0.23;0.23;;;;;;;;;;5073949;28;20399;-60
2022/11/22 09:56:31;;;;;;;0.57;0.40;;;;;;;;;;5074107;28;20509;-60
2022/11/22 09:59:05;;;;;;;0.60;0.50;;;;;;;;;;5070748;28;20052;-60
2022/11/22 10:01:50;;;;;;;0.98;0.70;;;;;;;;;;5068483;28;20429;-59
2022/11/22 10:04:21;;;;;;;0.63;0.43;;;;;;;;;;5067666;28;20085;-60
2022/11/22 10:06:58;;;;;;;0.53;0.37;;;;;;;;;;5068287;28;20024;-60
2022/11/22 10:09:34;;;;;;;1.10;0.57;;;;;;;;;;5072119;28;20250;-60
2022/11/22 10:12:01;;;;;;;0.77;0.50;;;;;;;;;;5073561;28;20044;-60
2022/11/22 10:14:27;;;;;;;0.20;0.20;;;;;;;;;;5072676;28;20149;-60
2022/11/22 10:17:01;;;;;;;0.30;0.30;;;;;;;;;;5073570;28;20040;-59
2022/11/22 10:19:35;;;;;;;0.27;0.20;;;;;;;;;;5073596;28;20375;-59
2022/11/22 10:22:02;;;;;;;0.30;0.30;;;;;;;;;;5068157;28;20032;-59
2022/11/22 10:24:29;;;;;;;1.20;0.90;;;;;;;;;;5067504;28;20423;-60
2022/11/22 10:26:57;;;;;;;0.70;0.40;;;;;;;;;;5067608;28;20597;-60
2022/11/22 10:29:27;;;;;;;0.37;0.30;;;;;;;;;;5067636;28;20362;-60
2022/11/22 10:32:10;;;;;;;0.40;0.40;;;;;;;;;;5072376;28;20104;-59
2022/11/22 10:34:37;;;;;;;0.83;0.53;;;;;;;;;;5073304;28;20071;-60
2022/11/22 10:37:24;;;;;;;0.33;0.33;;;;;;;;;;5073174;28;20029;-59
2022/11/22 10:40:08;;;;;;;0.43;0.40;;;;;;;;;;5072823;28;20029;-59
2022/11/22 10:42:37;;;;;;;0.17;0.17;;;;;;;;;;5071671;28;20552;-59
2022/11/22 10:45:14;;;;;;;3.67;1.13;;;;;;;;;;5067102;28;20021;-60
2022/11/22 10:47:49;;;;;;;0.33;0.33;;;;;;;;;;5067580;28;20032;-59
2022/11/22 10:50:16;;;;;;;;;;;;;;;;;;5068070;28;20341;-60
2022/11/22 10:52:56;;;;;;;0.60;0.43;;;;;;;;;;5068500;28;19918;-59
2022/11/22 10:55:32;;;;;;;0.47;0.47;;;;;;;;;;5072424;28;20249;-59
2022/11/22 10:58:08;;;;;;;0.87;0.57;;;;;;;;;;5072673;28;20104;-59
2022/11/22 11:00:38;;;;;;;0.67;0.50;;;;;;;;;;5072892;28;20254;-59
2022/11/22 11:03:20;;;;;;;0.60;0.50;;;;;;;;;;5072677;28;20250;-60
2022/11/22 11:05:53;;;;;;;0.80;0.57;;;;;;;;;;5069177;28;20262;-62
2022/11/22 11:08:45;;;;;;;0.67;0.60;;;;;;;;;;5067163;28;20292;-62
2022/11/22 11:11:14;;;;;;;0.77;0.57;;;;;;;;;;5062623;28;20273;-62
2022/11/22 11:13:46;;;;;;;0.80;0.50;;;;;;;;;;5066738;28;20284;-62
2022/11/22 11:16:17;;;;;;;3.30;0.63;;;;;;;;;;5070882;28;20289;-62
2022/11/22 11:18:50;;;;;;;1.60;1.00;;;;;;;;;;5072648;28;20315;-62
2022/11/22 11:21:17;;;;;;;0.70;0.70;;;;;;;;;;5072536;28;20307;-62
2022/11/22 11:23:43;;;;;;;0.50;0.50;;;;;;;;;;5071591;28;20375;-62
2022/11/22 11:26:18;;;;;;;2.00;1.27;;;;;;;;;;5072289;28;20257;-62
2022/11/22 11:28:45;;;;;;;1.08;0.50;;;;;;;;;;5067337;28;20254;-62
2022/11/22 11:31:12;;;;;;;0.80;0.73;;;;;;;;;;5066643;28;20081;-62
2022/11/22 11:33:40;;;;;;;0.30;0.30;;;;;;;;;;5066693;28;20269;-62
2022/11/22 11:36:10;;;;;;;0.27;0.27;;;;;;;;;;5066655;28;20284;-62
2022/11/22 11:38:47;;;;;;;0.50;0.50;;;;;;;;;;5071049;28;20260;-62
2022/11/22 11:41:33;;;;;;;0.23;0.20;;;;;;;;;;5072205;28;20253;-62
2022/11/22 11:44:01;;;;;;;0.70;0.50;;;;;;;;;;5071815;28;20340;-62
2022/11/22 11:46:29;;;;;;;0.40;0.40;;;;;;;;;;5071880;28;20337;-62
2022/11/22 11:48:56;;;;;;;0.73;0.60;;;;;;;;;;5071756;28;20250;-63
2022/11/22 11:51:25;;;;;;;0.23;0.23;;;;;;;;;;5066516;28;20249;-62
2022/11/22 11:53:52;;;;;;;1.07;0.77;;;;;;;;;;5046718;28;20284;-62
2022/11/22 11:56:28;;;;;;;0.47;0.47;;;;;;;;;;5046613;28;20340;-62
2022/11/22 11:58:56;;;;;;;0.93;0.63;;;;;;;;;;5046411;28;20258;-62
2022/11/22 12:01:24;;;;;;;1.90;1.10;;;;;;;;;;5052207;28;20246;-62
2022/11/22 12:03:55;;;;;;;0.53;0.50;;;;;;;;;;5070095;28;20350;-60
2022/11/22 12:06:27;;;;;;;1.57;0.83;;;;;;;;;;5071921;28;20253;-59
2022/11/22 12:08:53;;;;;;;0.70;0.67;;;;;;;;;;5071864;28;20250;-60
2022/11/22 12:11:33;;;;;;;0.73;0.43;;;;;;;;;;5071285;28;20253;-59
2022/11/22 12:14:02;;;;;;;1.83;1.13;;;;;;;;;;5066384;28;20254;-59
2022/11/22 12:16:30;;;;;;;0.80;0.77;;;;;;;;;;5066293;28;20289;-60
2022/11/22 12:19:06;;;;;;;3.03;1.30;;;;;;;;;;5066296;28;20273;-59
2022/11/22 12:21:39;;;;;;;1.23;0.80;;;;;;;;;;5067503;28;20265;-61
2022/11/22 12:24:18;;;;;;;1.20;0.87;;;;;;;;;;5071694;28;20265;-60
2022/11/22 12:26:45;;;;;;;1.10;0.90;;;;;;;;;;5071787;28;20736;-59
2022/11/22 12:29:12;;;;;;;1.37;0.73;;;;;;;;;;5071725;28;20747;-59
2022/11/22 12:31:42;;;;;;;1.00;0.80;;;;;;;;;;5071707;28;20306;-59
2022/11/22 12:34:12;;;;;;;1.13;0.77;;;;;;;;;;5069547;28;20269;-60
2022/11/22 12:36:42;;;;;;;1.33;0.83;;;;;;;;;;5069631;28;20292;-60
2022/11/22 12:39:12;;;;;;;1.00;0.90;;;;;;;;;;5069797;28;20261;-60
2022/11/22 12:41:39;;;;;;;2.27;0.97;;;;;;;;;;5069820;28;20269;-59
2022/11/22 12:44:07;;;;;;;0.80;0.60;;;;;;;;;;5071674;28;20257;-60
2022/11/22 12:46:54;;;;;;;0.60;0.50;;;;;;;;;;5075247;28;20286;-59
2022/11/22 12:49:24;;;;;;;5.30;0.77;;;;;;;;;;5075107;28;20384;-60
2022/11/22 12:51:53;;;;;;;2.93;1.70;;;;;;;;;;5075264;28;20304;-59
2022/11/22 12:54:23;;;;;;;0.90;0.80;;;;;;;;;;5075233;28;20250;-59
2022/11/22 12:56:53;;;;;;;1.83;0.73;;;;;;;;;;5071300;28;20763;-60
2022/11/22 12:59:38;;;;;;;1.17;1.00;;;;;;;;;;5069402;28;20273;-59
2022/11/22 13:02:13;;;;;;;0.40;0.40;;;;;;;;;;5069503;28;20285;-60
2022/11/22 13:04:56;;;;;;;0.70;0.40;;;;;;;;;;5069680;28;20017;-60
2022/11/22 13:07:31;;;;;;;0.57;0.57;;;;;;;;;;5073755;28;20078;-59
2022/11/22 13:09:58;;;;;;;;;;;;;;;;;;5075350;28;20253;-59
2022/11/22 13:12:36;;;;;;;1.70;0.97;;;;;;;;;;5074934;28;19946;-59
2022/11/22 13:15:03;;;;;;;0.73;0.63;;;;;;;;;;5074267;28;20246;-60
2022/11/22 13:17:34;;;;;;;0.63;0.40;;;;;;;;;;5074414;28;20312;-59
2022/11/22 13:20:05;;;;;;;0.57;0.50;;;;;;;;;;5051203;28;20837;-60
2022/11/22 13:22:34;;;;;;;1.77;0.70;;;;;;;;;;5069014;28;20352;-60
2022/11/22 13:25:13;;;;;;;2.03;1.17;;;;;;;;;;5069153;28;20265;-60
2022/11/22 13:27:44;;;;;;;1.17;0.93;;;;;;;;;;5068977;28;20348;-62
2022/11/22 13:30:21;;;;;;;0.97;0.60;;;;;;;;;;5074105;28;20257;-62
2022/11/22 13:32:53;;;;;;;1.53;0.90;;;;;;;;;;5074436;28;20281;-62
2022/11/22 13:35:22;;;;;;;1.20;0.70;;;;;;;;;;5074066;28;20265;-62
2022/11/22 13:38:05;;;;;;;2.33;1.23;;;;;;;;;;5073765;28;20029;-62
2022/11/22 13:40:33;;;;;;;1.70;1.20;;;;;;;;;;5072601;28;20056;-62
2022/11/22 13:43:15;;;;;;;0.30;0.30;;;;;;;;;;5068711;28;20032;-62
2022/11/22 13:45:51;;;;;;;3.57;1.57;;;;;;;;;;5068022;28;20024;-62
2022/11/22 13:48:36;;;;;;;2.67;1.67;;;;;;;;;;5068620;28;20060;-62
2022/11/22 13:51:02;;;;;;;8.90;2.70;;;;;;;;;;5071347;28;20032;-63
2022/11/22 13:53:31;;;;;;;7.17;1.37;;;;;;;;;;5073756;28;20434;-63
2022/11/22 13:55:59;;;;;;;12.90;1.80;;;;;;;;;;5073563;28;20024;-63
2022/11/22 13:58:25;;;;;;;2.40;1.20;;;;;;;;;;5074085;28;20027;-63
2022/11/22 14:00:55;;;;;;;3.00;1.43;;;;;;;;;;5073942;28;20020;-63
2022/11/22 14:03:28;;;;;;;3.50;1.43;;;;;;;;;;5070599;28;20021;-63
2022/11/22 14:05:57;;;;;;;13.87;1.37;;;;;;;;;;5068303;28;20025;-62
2022/11/22 14:08:30;;;;;;;0.50;0.50;;;;;;;;;;5068187;28;20531;-63
2022/11/22 14:10:56;;;;;;;1.33;0.87;;;;;;;;;;5068310;28;20058;-62
2022/11/22 14:13:37;;;;;;;1.73;0.93;;;;;;;;;;5070763;28;20025;-63
2022/11/22 14:16:04;;;;;;;21.10;1.13;;;;;;;;;;5053337;28;20036;-63
2022/11/22 14:18:57;;;;;;;0.73;0.60;;;;;;;;;;5065911;28;20031;-63
2022/11/22 14:21:26;;;;;;;1.60;0.93;;;;;;;;;;5061338;28;20113;-63
2022/11/22 14:23:56;;;;;;;8.63;0.80;;;;;;;;;;5060146;28;20047;-63
2022/11/22 14:26:40;;;;;;;0.70;0.30;;;;;;;;;;5056213;28;20021;-63
2022/11/22 14:29:14;;;;;;;0.60;0.50;;;;;;;;;;5064772;28;20017;-63
2022/11/22 14:31:41;;;;;;;0.95;0.70;;;;;;;;;;5067302;28;20506;-65
2022/11/22 14:34:24;;;;;;;1.27;0.83;;;;;;;;;;5056261;28;20028;-63
2022/11/22 14:37:09;;;;;;;1.33;0.60;;;;;;;;;;5072628;28;20491;-62
2022/11/22 14:40:03;;;;;;;0.80;0.57;;;;;;;;;;5073252;28;20025;-63
2022/11/22 14:45:04;;;;;;;0.80;0.47;;;;;;;;;;5073069;28;20487;-63
2022/11/22 14:47:34;;;;;;;1.13;0.67;;;;;;;;;;5065532;28;20540;-63
2022/11/22 14:50:01;;;;;;;0.80;0.63;;;;;;;;;;5067656;28;20100;-63
2022/11/22 14:52:29;;;;;;;1.03;0.60;;;;;;;;;;5067650;28;20028;-63
2022/11/22 14:55:00;;;;;;;2.00;0.80;;;;;;;;;;5060766;28;20016;-63
2022/11/22 14:57:29;;;;;;;1.03;0.67;;;;;;;;;;5059841;28;20082;-63
2022/11/22 15:00:08;;;;;;;0.50;0.50;;;;;;;;;;5064133;28;20032;-63
2022/11/22 15:02:53;;;;;;;1.27;0.90;;;;;;;;;;5056376;28;20104;-63
2022/11/22 15:05:38;;;;;;;1.25;0.68;;;;;;;;;;5069880;28;20032;-64
2022/11/22 15:08:25;;;;;;;1.60;1.10;;;;;;;;;;5052835;28;20055;-63
2022/11/22 15:11:14;;;;;;;0.80;0.57;;;;;;;;;;5056182;28;20467;-63
2022/11/22 15:13:44;;;;;;;1.27;0.60;;;;;;;;;;5066246;28;20056;-63